Archival Weather

Habib Bourguiba Intl

Habib Bourguiba Intl, Tunisia (DTMB)

Report from: Sunday, October 1, 2023 9:00 AM CET
Current time: Saturday, March 2, 2024 11:34 AM CET

Current weather – Weather history – Daily summaries
Weather forecast

Temperature25.0°C (77.0°F)
Dew point18.0°C (64.4°F)
Winds 7 kts (3.6 m/s, 8.1 mph) Vrb
Winds variableWinds variable from West-Northwest (300°) to North (359.999999°)
Visibility5 mi. (8 km)
Clouds Few clouds 3,000 ft. (914 m)
Altimeter30.21 in.Hg (1023 mB)
Relative humidity65 %
Density altitude1,113 ft. (339 m)
Flight conditions Marginal Visual Meteorological Conditions
Raw dataDTMB 010800Z 33007KT 300V360 8000 FEW030 25/18 Q1023
An error has occurred. This application may no longer respond until reloaded. Reload 🗙